Time;durP1;ratioP1;P1;durP2;ratioP2;P2;SDS_P1;SDS_P2;PMS_P1;PMS_P2;Temp;Humidity;BMP_temperature;BMP_pressure;BME280_temperature;BME280_humidity;BME280_pressure;Samples;Min_cycle;Max_cycle;Signal;HPM_P1;HPM_P2
2022/08/16 00:00:25;;;;;;;3.35;2.38;;;18.50;99.90;;;18.35;85.15;96580.28;4956121;28;20052;-43
2022/08/16 00:02:53;;;;;;;3.25;2.30;;;18.50;99.90;;;18.34;85.35;96578.59;4954009;28;20042;-43
2022/08/16 00:05:21;;;;;;;3.72;2.00;;;18.40;99.90;;;18.31;85.39;96582.34;4971275;28;20038;-46
2022/08/16 00:07:47;;;;;;;3.40;2.20;;;18.40;99.90;;;18.24;85.38;96582.97;4971747;28;20034;-47
2022/08/16 00:10:15;;;;;;;5.25;2.35;;;18.40;99.90;;;18.20;85.12;96577.03;4971536;28;20034;-45
2022/08/16 00:12:41;;;;;;;3.20;2.40;;;18.30;99.90;;;18.08;85.35;96570.00;4970137;28;20047;-45
2022/08/16 00:15:16;;;;;;;3.70;2.42;;;18.20;99.90;;;18.01;86.27;96579.47;4952043;28;20063;-47
2022/08/16 00:17:43;;;;;;;3.65;2.50;;;18.10;99.90;;;17.89;87.19;96579.50;4971154;28;20034;-45
2022/08/16 00:20:10;;;;;;;4.10;2.40;;;18.00;99.90;;;17.78;88.02;96578.59;4971796;28;20036;-45
2022/08/16 00:22:38;;;;;;;3.58;2.35;;;17.90;99.90;;;17.69;88.54;96580.19;4972939;28;20034;-42
2022/08/16 00:25:08;;;;;;;3.47;2.50;;;17.80;99.90;;;17.66;89.21;96586.63;4967227;28;20023;-45
2022/08/16 00:27:34;;;;;;;3.30;2.20;;;17.80;99.90;;;17.68;89.55;96583.84;4968188;28;20061;-45
2022/08/16 00:30:00;;;;;;;2.85;2.55;;;17.80;99.90;;;17.70;89.38;96588.06;4972159;28;20481;-44
2022/08/16 00:32:25;;;;;;;2.40;2.20;;;17.80;99.90;;;17.73;89.59;96584.31;4974144;28;20399;-42
2022/08/16 00:34:51;;;;;;;4.20;2.80;;;17.80;99.90;;;17.73;89.27;96585.16;4954595;28;20047;-42
2022/08/16 00:37:18;;;;;;;3.80;2.47;;;17.80;99.90;;;17.76;89.26;96584.06;4971627;28;20030;-43
2022/08/16 00:39:46;;;;;;;3.42;2.58;;;17.90;99.90;;;17.75;89.16;96591.22;4957618;28;20061;-42
2022/08/16 00:42:12;;;;;;;3.05;2.70;;;17.90;99.90;;;17.71;89.70;96589.78;4972141;28;20145;-43
2022/08/16 00:44:38;;;;;;;4.28;2.50;;;17.90;99.90;;;17.68;89.70;96592.66;4970768;28;20053;-44
2022/08/16 00:47:09;;;;;;;3.97;2.88;;;17.80;99.90;;;17.63;90.13;96589.50;4970311;28;20041;-44
2022/08/16 00:49:35;;;;;;;4.20;2.72;;;17.80;99.90;;;17.62;90.42;96593.16;4956515;28;20109;-43
2022/08/16 00:52:02;;;;;;;3.38;2.65;;;17.70;99.90;;;17.58;90.75;96594.34;4973704;28;20045;-46
2022/08/16 00:54:30;;;;;;;2.97;2.70;;;17.70;99.90;;;17.59;90.92;96597.88;4976016;28;20122;-45
2022/08/16 00:57:01;;;;;;;4.32;2.80;;;17.70;99.90;;;17.61;91.17;96583.47;4975074;28;20018;-45
2022/08/16 00:59:31;;;;;;;3.05;2.47;;;17.70;99.90;;;17.61;91.32;96588.78;4957261;28;20534;-43
2022/08/16 01:01:57;;;;;;;2.97;2.53;;;17.70;99.90;;;17.58;91.57;96594.34;4973562;28;20027;-42
2022/08/16 01:04:25;;;;;;;5.03;2.22;;;17.70;99.90;;;17.49;91.77;96598.56;4974627;28;20129;-43
2022/08/16 01:06:51;;;;;;;2.70;2.40;;;17.60;99.90;;;17.41;92.50;96600.13;4974126;28;20042;-43
2022/08/16 01:09:18;;;;;;;3.22;2.83;;;17.60;99.90;;;17.32;92.92;96597.22;4976030;28;20294;-44
2022/08/16 01:11:44;;;;;;;2.97;2.40;;;17.50;99.90;;;17.26;93.67;96599.50;4974995;28;20034;-43
2022/08/16 01:14:17;;;;;;;4.07;2.45;;;17.40;99.90;;;17.20;94.51;96600.00;4975776;28;20030;-45
2022/08/16 01:16:45;;;;;;;3.90;2.55;;;17.40;99.90;;;17.14;94.68;96593.31;4939728;28;20803;-45
2022/08/16 01:19:23;;;;;;;5.43;2.80;;;17.30;99.90;;;17.16;97.03;96597.56;4958001;28;20497;-43
2022/08/16 01:22:02;;;;;;;3.70;2.47;;;17.30;99.90;;;17.16;96.65;96594.88;4956801;28;20514;-44
2022/08/16 01:24:51;;;;;;;3.42;2.97;;;17.30;99.90;;;17.22;97.76;96590.91;4957341;28;20090;-42
2022/08/16 01:27:30;;;;;;;3.70;2.85;;;17.30;99.90;;;17.25;97.36;96590.69;4956738;28;20030;-42
2022/08/16 01:30:10;;;;;;;4.38;3.30;;;17.40;99.90;;;17.32;97.84;96589.22;4971428;28;20043;-45
2022/08/16 01:32:41;;;;;;;4.38;3.25;;;17.40;99.90;;;17.34;97.69;96595.28;4970641;28;20038;-45
2022/08/16 01:35:29;;;;;;;6.75;3.20;;;17.50;99.90;;;17.41;97.37;96602.81;4973535;28;20042;-43
2022/08/16 01:37:56;;;;;;;3.75;2.85;;;17.60;99.90;;;17.41;97.75;96605.47;4971069;28;20031;-43
2022/08/16 01:40:29;;;;;;;3.75;2.42;;;17.60;99.90;;;17.40;97.41;96599.28;4974912;28;20030;-45
2022/08/16 01:42:55;;;;;;;;;;;17.60;99.90;;;17.39;97.65;96602.06;4973685;28;20498;-45
2022/08/16 01:45:21;;;;;;;3.28;2.90;;;17.60;99.90;;;17.35;97.84;96594.34;5031347;22;20353;-58
2022/08/16 01:47:50;;;;;;;5.35;3.03;;;17.50;99.90;;;17.33;97.97;96600.75;5034426;28;20083;-58
2022/08/16 01:50:16;;;;;;;4.30;3.38;;;17.50;99.90;;;17.29;98.47;96599.28;5017884;28;20030;-58
2022/08/16 01:52:42;;;;;;;2.97;2.58;;;17.50;99.90;;;17.25;98.74;96593.34;5017288;28;20041;-58
2022/08/16 01:55:09;;;;;;;3.47;2.97;;;17.40;99.90;;;17.25;98.71;96595.16;5015443;28;20029;-58
2022/08/16 01:57:35;;;;;;;4.32;3.03;;;17.40;99.90;;;17.22;99.29;96598.06;5029403;28;20026;-58
2022/08/16 02:00:06;;;;;;;2.70;2.45;;;17.40;99.90;;;17.22;99.49;96595.38;5033947;28;20048;-58
2022/08/16 02:02:32;;;;;;;4.40;3.10;;;17.40;99.90;;;17.21;99.67;96589.22;5016486;28;20033;-58
2022/08/16 02:04:58;;;;;;;3.17;2.75;;;17.40;99.90;;;17.21;99.87;96589.22;5032788;28;20036;-58
2022/08/16 02:07:24;;;;;;;4.30;3.08;;;17.40;99.90;;;17.21;100.00;96588.34;5031022;28;20044;-58
2022/08/16 02:09:52;;;;;;;5.10;2.92;;;17.40;99.90;;;17.22;100.00;96590.91;5031912;28;20029;-58
2022/08/16 02:12:18;;;;;;;3.90;2.60;;;17.40;99.90;;;17.24;99.95;96583.63;5032272;28;20232;-58
2022/08/16 02:14:44;;;;;;;3.53;3.00;;;17.40;99.90;;;17.25;100.00;96585.34;5032691;28;20049;-58
2022/08/16 02:17:11;;;;;;;3.50;2.72;;;17.40;99.90;;;17.26;100.00;96592.34;5030256;28;20025;-58
2022/08/16 02:19:40;;;;;;;3.85;2.83;;;17.40;99.90;;;17.29;99.75;96596.63;5033563;28;20048;-58
2022/08/16 02:22:12;;;;;;;4.05;2.88;;;17.40;99.90;;;17.33;99.94;96592.75;5018439;28;20033;-58
2022/08/16 02:24:39;;;;;;;3.70;3.03;;;17.40;99.90;;;17.41;99.57;96589.47;5027238;28;20041;-58
2022/08/16 02:27:05;;;;;;;5.47;3.15;;;17.50;99.90;;;17.48;99.01;96596.03;5031960;28;20030;-58
2022/08/16 02:29:31;;;;;;;3.13;2.83;;;17.60;99.90;;;17.55;98.42;96591.94;5031541;28;20056;-59
2022/08/16 02:31:58;;;;;;;3.50;2.60;;;17.70;99.90;;;17.60;98.15;96584.41;5031787;28;20025;-58
2022/08/16 02:34:24;;;;;;;4.30;2.88;;;17.70;99.90;;;17.64;98.03;96579.69;5033630;28;20075;-58
2022/08/16 02:36:50;;;;;;;3.55;2.75;;;17.80;99.90;;;17.66;97.62;96583.94;5032929;28;20029;-58
2022/08/16 02:39:18;;;;;;;4.80;2.58;;;17.80;99.90;;;17.65;97.43;96579.56;5016379;28;20041;-57
2022/08/16 02:41:47;;;;;;;3.33;2.50;;;17.80;99.90;;;17.71;97.49;96586.22;5031831;28;20029;-58
2022/08/16 02:44:13;;;;;;;3.85;3.03;;;17.80;99.90;;;17.72;97.26;96587.94;5033877;28;20548;-58
2022/08/16 02:46:41;;;;;;;4.32;3.03;;;17.80;99.90;;;17.74;97.11;96586.84;5033179;28;20739;-58
2022/08/16 02:49:07;;;;;;;5.43;2.55;;;17.90;99.90;;;17.74;97.26;96589.50;5033137;28;20116;-58
2022/08/16 02:51:34;;;;;;;3.20;2.60;;;17.90;99.90;;;17.73;97.26;96582.50;5017797;28;20069;-58
2022/08/16 02:54:00;;;;;;;3.40;2.85;;;17.90;99.90;;;17.75;97.21;96580.56;5032916;28;20136;-58
2022/08/16 02:56:28;;;;;;;5.38;2.88;;;17.80;99.90;;;17.74;97.17;96570.00;5034665;28;20112;-58
2022/08/16 02:58:54;;;;;;;4.75;2.15;;;17.90;99.90;;;17.71;97.44;96571.09;5033987;28;20025;-58
2022/08/16 03:01:24;;;;;;;4.63;2.58;;;17.80;99.90;;;17.70;97.30;96577.41;5034780;28;20112;-58
2022/08/16 03:03:53;;;;;;;3.22;2.35;;;17.80;99.90;;;17.63;97.26;96568.19;5034066;28;20455;-58
2022/08/16 03:06:21;;;;;;;3.25;2.58;;;17.80;99.90;;;17.60;97.76;96573.75;5035725;28;20021;-58
2022/08/16 03:08:48;;;;;;;4.47;2.70;;;17.70;99.90;;;17.56;97.97;96572.31;5032897;28;20454;-58
2022/08/16 03:11:17;;;;;;;3.15;2.80;;;17.70;99.90;;;17.50;98.30;96567.47;5033605;28;20360;-58
2022/08/16 03:13:44;;;;;;;3.55;2.85;;;17.60;99.90;;;17.46;98.81;96565.97;5032155;28;20092;-58
2022/08/16 03:16:11;;;;;;;3.78;2.50;;;17.60;99.90;;;17.38;99.54;96563.94;5030041;28;20219;-58
2022/08/16 03:18:38;;;;;;;3.67;2.95;;;17.50;99.90;;;17.33;100.00;96558.09;5032274;28;20505;-58
2022/08/16 03:21:06;;;;;;;4.40;2.75;;;17.40;99.90;;;17.25;100.00;96560.53;5031023;28;20128;-58
2022/08/16 03:23:31;;;;;;;3.08;2.78;;;17.40;99.90;;;17.17;100.00;96561.97;5031398;28;20053;-58
2022/08/16 03:25:57;;;;;;;4.18;2.95;;;17.30;99.90;;;17.06;100.00;96551.25;5030847;28;20025;-58
2022/08/16 03:28:23;;;;;;;3.78;2.72;;;17.20;99.90;;;16.99;100.00;96544.72;5033491;28;20412;-58
2022/08/16 03:30:49;;;;;;;4.57;2.40;;;17.10;99.90;;;16.91;100.00;96539.13;5031870;28;20124;-58
2022/08/16 03:33:15;;;;;;;3.97;2.75;;;17.10;99.90;;;16.83;100.00;96547.69;5033512;28;20096;-58
2022/08/16 03:35:41;;;;;;;3.10;2.80;;;17.00;99.90;;;16.80;100.00;96551.41;5029194;28;20071;-58
2022/08/16 03:38:11;;;;;;;3.08;2.67;;;17.00;99.90;;;16.74;100.00;96553.69;5025681;28;20098;-61
2022/08/16 03:40:38;;;;;;;4.30;2.63;;;16.90;99.90;;;16.67;100.00;96557.75;5030546;28;20033;-61
2022/08/16 03:43:08;;;;;;;3.60;2.97;;;16.80;99.90;;;16.60;100.00;96552.91;5028692;28;20029;-59
2022/08/16 03:45:34;;;;;;;3.50;2.50;;;16.80;99.90;;;16.59;100.00;96556.53;5028483;28;20041;-58
2022/08/16 03:48:01;;;;;;;4.82;3.03;;;16.70;99.90;;;16.52;100.00;96552.63;5029351;28;20497;-58
2022/08/16 03:50:28;;;;;;;3.15;2.85;;;16.70;99.90;;;16.53;100.00;96553.50;5031343;28;20044;-58
2022/08/16 03:52:54;;;;;;;4.53;2.67;;;16.70;99.90;;;16.50;100.00;96557.22;5030358;28;20033;-58
2022/08/16 03:55:20;;;;;;;3.72;2.80;;;16.60;99.90;;;16.46;100.00;96553.09;5031062;28;20063;-58
2022/08/16 03:57:47;;;;;;;3.92;3.03;;;16.60;99.90;;;16.42;100.00;96555.13;5030855;28;20029;-60
2022/08/16 04:00:21;;;;;;;5.00;3.10;;;16.50;99.90;;;16.39;100.00;96554.50;5031219;28;20071;-60
2022/08/16 04:02:47;;;;;;;4.72;2.83;;;16.50;99.90;;;16.39;100.00;96558.00;5032434;28;20055;-60
2022/08/16 04:05:15;;;;;;;3.28;2.97;;;16.60;99.90;;;16.37;100.00;96559.94;5028908;28;20481;-60
2022/08/16 04:07:41;;;;;;;5.28;3.42;;;16.50;99.90;;;16.38;100.00;96560.78;5031802;28;20036;-60
2022/08/16 04:10:10;;;;;;;5.75;2.80;;;16.50;99.90;;;16.37;100.00;96559.09;5030917;28;20397;-60
2022/08/16 04:12:37;;;;;;;4.40;3.00;;;16.50;99.90;;;16.38;100.00;96553.66;5013677;28;20097;-60
2022/08/16 04:15:05;;;;;;;3.97;3.00;;;16.50;99.90;;;16.40;100.00;96557.06;5030002;28;20060;-58
2022/08/16 04:17:31;;;;;;;3.42;3.10;;;16.60;99.90;;;16.42;100.00;96555.13;5031026;28;20033;-58
2022/08/16 04:19:57;;;;;;;3.92;2.88;;;16.60;99.90;;;16.46;100.00;96550.44;5031075;28;20029;-58
2022/08/16 04:22:24;;;;;;;3.80;3.20;;;16.60;99.90;;;16.51;100.00;96552.72;5028911;28;20363;-58
2022/08/16 04:24:50;;;;;;;3.50;3.20;;;16.70;99.90;;;16.57;100.00;96562.94;5030036;28;20025;-60
2022/08/16 04:27:16;;;;;;;5.57;3.10;;;16.70;99.90;;;16.59;100.00;96566.34;5035182;28;20034;-60
2022/08/16 04:29:42;;;;;;;3.67;3.08;;;16.70;99.90;;;16.69;100.00;96566.47;5035681;28;20481;-60
2022/08/16 04:32:08;;;;;;;4.25;3.17;;;16.80;99.90;;;16.73;100.00;96570.63;5033653;28;20083;-60
2022/08/16 04:34:38;;;;;;;3.90;2.80;;;16.80;99.90;;;16.75;100.00;96564.22;5036292;28;20323;-60
2022/08/16 04:37:04;;;;;;;4.10;3.20;;;16.90;99.90;;;16.82;100.00;96575.25;5035084;28;20033;-60
2022/08/16 04:39:33;;;;;;;3.65;3.22;;;17.00;99.90;;;16.87;100.00;96573.13;5034747;28;20056;-60
2022/08/16 04:41:59;;;;;;;4.43;3.00;;;17.00;99.90;;;16.95;100.00;96576.06;5033260;28;20029;-60
2022/08/16 04:44:25;;;;;;;3.92;3.40;;;17.10;99.90;;;17.03;100.00;96569.28;5035440;28;20075;-60
2022/08/16 04:46:52;;;;;;;4.82;3.08;;;17.10;99.90;;;17.15;100.00;96584.34;5036176;28;20045;-60
2022/08/16 04:49:18;;;;;;;4.18;2.83;;;17.30;99.90;;;17.25;100.00;96579.19;5034613;28;20048;-60
2022/08/16 04:51:44;;;;;;;4.70;3.33;;;17.40;99.90;;;17.43;100.00;96587.56;5035116;28;20029;-60
2022/08/16 04:54:11;;;;;;;4.57;3.10;;;17.50;99.90;;;17.46;100.00;96577.50;5035215;28;20300;-60
2022/08/16 04:56:37;;;;;;;3.35;2.92;;;17.70;99.90;;;17.68;100.00;96592.66;5036172;28;20025;-60
2022/08/16 04:59:04;;;;;;;4.40;3.08;;;17.80;99.90;;;17.82;100.00;96594.25;5037661;28;20037;-60
2022/08/16 05:01:30;;;;;;;3.13;2.75;;;17.90;99.90;;;17.93;100.00;96596.09;5033613;28;20503;-60
2022/08/16 05:03:55;;;;;;;4.40;2.88;;;18.00;99.90;;;18.02;100.00;96605.19;5033127;28;20120;-60
2022/08/16 05:06:21;;;;;;;3.63;2.85;;;18.20;99.90;;;18.09;99.63;96598.41;5033211;28;20029;-60
2022/08/16 05:08:47;;;;;;;3.50;3.10;;;18.20;99.90;;;18.20;98.85;96605.53;5036597;28;20027;-60
2022/08/16 05:11:14;;;;;;;5.47;3.35;;;18.30;99.90;;;18.27;98.29;96596.06;5032649;28;20029;-60
2022/08/16 05:13:44;;;;;;;5.00;2.70;;;18.40;99.90;;;18.39;97.42;96604.88;5032826;28;20106;-60
2022/08/16 05:16:16;;;;;;;4.28;2.90;;;18.50;99.90;;;18.46;97.05;96598.91;5030896;28;20529;-60
2022/08/16 05:18:42;;;;;;;3.83;2.88;;;18.60;99.90;;;18.54;96.57;96600.97;5034093;28;20242;-60
2022/08/16 05:21:08;;;;;;;3.30;2.80;;;18.60;99.90;;;18.60;95.61;96603.13;5030462;28;20048;-60
2022/08/16 05:23:33;;;;;;;4.45;3.05;;;18.70;99.90;;;18.69;95.06;96604.22;5031031;28;20392;-59
2022/08/16 05:25:59;;;;;;;4.82;3.17;;;18.80;99.90;;;18.78;93.38;96610.63;5033711;28;20041;-60
2022/08/16 05:28:26;;;;;;;3.88;3.05;;;18.90;99.90;;;18.84;92.70;96613.66;5035381;28;20032;-60
2022/08/16 05:30:52;;;;;;;4.93;3.00;;;19.00;99.90;;;18.91;92.26;96611.31;5034268;28;20444;-60
2022/08/16 05:33:20;;;;;;;3.05;2.72;;;19.10;99.90;;;18.95;92.09;96607.44;5036770;28;20033;-60
2022/08/16 05:35:47;;;;;;;4.55;2.85;;;19.10;99.90;;;19.05;91.76;96616.34;5034688;28;20033;-60
2022/08/16 05:38:13;;;;;;;6.15;2.92;;;19.20;99.90;;;19.11;90.80;96609.63;5032136;28;20032;-60
2022/08/16 05:40:38;;;;;;;4.25;2.90;;;19.30;99.90;;;19.21;90.47;96620.41;5033933;28;20029;-60
2022/08/16 05:43:04;;;;;;;4.70;3.13;;;19.30;99.90;;;19.27;89.59;96611.88;5031866;28;20044;-60
2022/08/16 05:45:30;;;;;;;3.97;3.20;;;19.40;99.90;;;19.32;89.59;96612.34;5017033;28;20114;-60
2022/08/16 05:47:56;;;;;;;4.13;2.70;;;19.40;99.90;;;19.39;89.28;96610.00;5033616;28;20082;-60
2022/08/16 05:50:22;;;;;;;4.28;3.15;;;19.50;99.90;;;19.45;88.46;96613.00;5036966;28;20510;-60
2022/08/16 05:52:47;;;;;;;6.90;3.38;;;19.60;99.90;;;19.52;87.78;96613.31;5035204;28;20072;-60
2022/08/16 05:55:13;;;;;;;4.32;2.90;;;19.60;99.90;;;19.59;87.56;96611.78;5032475;28;20042;-60
2022/08/16 05:57:39;;;;;;;3.63;2.80;;;19.70;99.90;;;19.62;86.80;96616.88;5035302;28;20028;-60
2022/08/16 06:00:09;;;;;;;4.95;3.00;;;19.70;99.90;;;19.65;86.84;96624.66;5036005;28;20488;-60
2022/08/16 06:02:35;;;;;;;3.03;2.60;;;19.70;99.90;;;19.69;87.05;96621.72;5032644;28;20021;-60
2022/08/16 06:05:02;;;;;;;3.50;2.65;;;19.80;99.90;;;19.75;86.70;96619.38;5033759;28;20064;-60
2022/08/16 06:07:28;;;;;;;4.35;2.47;;;19.80;99.90;;;19.83;86.63;96622.25;5033822;28;20021;-60
2022/08/16 06:09:58;;;;;;;3.08;2.60;;;19.90;99.90;;;19.94;86.31;96632.03;5033858;28;20397;-60
2022/08/16 06:12:25;;;;;;;5.07;3.22;;;19.90;99.90;;;20.03;85.10;96625.84;5034408;28;20030;-60
2022/08/16 06:14:51;;;;;;;9.07;2.85;;;20.00;99.90;;;20.17;84.98;96632.69;5034645;28;20021;-60
2022/08/16 06:17:17;;;;;;;4.75;2.90;;;20.20;99.90;;;20.33;84.27;96634.00;5034722;28;20621;-60
2022/08/16 06:19:43;;;;;;;3.55;2.88;;;20.30;99.90;;;20.47;83.99;96630.94;5028594;28;20036;-60
2022/08/16 06:22:09;;;;;;;2.58;2.38;;;20.40;99.90;;;20.58;82.85;96627.28;5031918;28;20033;-60
2022/08/16 06:24:35;;;;;;;4.22;2.67;;;20.50;99.90;;;20.70;82.06;96622.69;5035075;28;20460;-60
2022/08/16 06:27:02;;;;;;;3.13;2.55;;;20.70;99.90;;;20.79;81.15;96621.88;5019399;28;20040;-60
2022/08/16 06:29:28;;;;;;;3.85;2.88;;;20.80;99.90;;;20.80;80.59;96631.59;5018499;28;20104;-60
2022/08/16 06:31:53;;;;;;;3.80;3.08;;;20.80;99.90;;;20.79;79.59;96635.25;5033564;28;20373;-60
2022/08/16 06:34:19;;;;;;;5.28;3.00;;;20.80;99.90;;;20.79;80.03;96630.75;5034196;28;20025;-60
2022/08/16 06:36:45;;;;;;;3.75;2.85;;;20.80;99.90;;;20.79;79.68;96630.75;5032416;28;20022;-60
2022/08/16 06:39:11;;;;;;;4.68;3.30;;;20.80;99.90;;;20.77;80.09;96630.03;5034636;28;20021;-60
2022/08/16 06:41:37;;;;;;;4.20;2.65;;;20.80;99.90;;;20.75;80.00;96633.84;5034623;28;20277;-60
2022/08/16 06:44:03;;;;;;;4.35;3.20;;;20.80;99.90;;;20.73;79.65;96631.31;5034683;28;20130;-60
2022/08/16 06:46:33;;;;;;;3.63;2.72;;;20.80;99.90;;;20.76;79.08;96639.06;5035057;28;20102;-60
2022/08/16 06:49:06;;;;;;;4.80;3.67;;;20.80;99.90;;;20.81;78.63;96627.09;5032313;28;20521;-60
2022/08/16 06:51:33;;;;;;;4.13;2.90;;;20.90;99.90;;;20.87;78.74;96637.22;5035748;28;20041;-60
2022/08/16 06:54:00;;;;;;;6.30;3.22;;;20.90;99.90;;;20.91;77.53;96638.66;5033769;28;20033;-60
2022/08/16 06:56:26;;;;;;;4.38;3.33;;;21.00;99.90;;;20.91;77.71;96638.66;5033124;28;20018;-60
2022/08/16 06:58:53;;;;;;;6.28;3.10;;;21.00;99.90;;;20.94;77.35;96638.38;5033629;28;20040;-60
2022/08/16 07:01:20;;;;;;;6.18;3.00;;;21.00;99.90;;;21.00;76.60;96635.16;5034113;28;20168;-60
2022/08/16 07:03:46;;;;;;;6.07;3.90;;;21.10;99.90;;;21.07;76.28;96644.31;5030689;28;20425;-60
2022/08/16 07:06:12;;;;;;;5.57;3.30;;;21.10;99.90;;;21.17;75.47;96650.53;5035778;28;20106;-60
2022/08/16 07:08:39;;;;;;;4.90;3.40;;;21.20;99.90;;;21.31;74.46;96653.78;5033309;28;20397;-60
2022/08/16 07:11:04;;;;;;;4.20;3.17;;;21.40;99.90;;;21.33;74.07;96631.16;5034181;28;20056;-60
2022/08/16 07:13:30;;;;;;;4.65;3.20;;;21.40;99.90;;;21.51;72.88;96658.16;5033734;28;20098;-60
2022/08/16 07:15:58;;;;;;;3.55;3.10;;;21.50;99.90;;;21.66;73.21;96644.28;5034371;28;20029;-60
2022/08/16 07:18:25;;;;;;;4.10;3.22;;;21.60;99.90;;;21.80;72.07;96649.19;5019364;28;20481;-60
2022/08/16 07:20:52;;;;;;;5.80;3.53;;;21.80;99.90;;;21.96;71.89;96637.03;5033636;28;20099;-60
2022/08/16 07:23:19;;;;;;;6.30;3.40;;;21.90;99.90;;;22.08;69.99;96644.75;5033919;28;20025;-60
2022/08/16 07:25:45;;;;;;;5.75;3.67;;;22.00;99.90;;;22.17;69.22;96644.88;5030913;28;20025;-61
2022/08/16 07:28:14;;;;;;;3.80;3.20;;;22.10;99.90;;;22.12;67.56;96634.56;5034368;28;20059;-61
2022/08/16 07:30:41;;;;;;;5.40;3.38;;;22.20;99.90;;;22.15;68.52;96636.13;5033235;28;20021;-61
2022/08/16 07:33:08;;;;;;;3.75;3.30;;;22.20;99.90;;;22.31;68.83;96633.66;5033817;28;20534;-61
2022/08/16 07:35:35;;;;;;;4.10;3.53;;;22.30;99.90;;;22.42;68.05;96628.09;5029441;28;20078;-60
2022/08/16 07:38:01;;;;;;;3.47;3.05;;;22.40;99.90;;;22.52;67.90;96630.72;5033107;28;20026;-60
2022/08/16 07:40:27;;;;;;;6.72;3.70;;;22.60;99.90;;;22.68;66.32;96633.63;5033944;28;20366;-60
2022/08/16 07:42:54;;;;;;;4.82;3.65;;;22.60;99.60;;;22.78;64.28;96632.69;5033059;28;20041;-61
2022/08/16 07:45:22;;;;;;;5.07;3.47;;;22.70;98.70;;;22.73;64.67;96638.50;5047316;22;20508;-52
2022/08/16 07:47:48;;;;;;;8.20;3.38;;;22.70;98.60;;;22.67;64.84;96636.44;5029813;28;20021;-52
2022/08/16 07:50:15;;;;;;;5.15;3.33;;;22.60;98.60;;;22.66;64.56;96640.94;5031273;28;20053;-53
2022/08/16 07:52:42;;;;;;;6.38;3.33;;;22.60;98.50;;;22.89;64.47;96635.16;5017629;28;20060;-53
2022/08/16 07:55:12;;;;;;;3.75;3.20;;;22.80;98.60;;;23.16;65.74;96638.81;5032161;28;20028;-53
2022/08/16 07:57:39;;;;;;;5.30;3.53;;;23.10;98.80;;;23.29;64.43;96639.25;5033171;28;20033;-55
2022/08/16 08:00:07;;;;;;;4.82;2.70;;;23.30;98.50;;;23.48;64.11;96643.63;5035443;28;20022;-51
2022/08/16 08:02:33;;;;;;;4.45;3.42;;;23.50;98.30;;;23.78;62.42;96652.28;5012987;28;20036;-52
2022/08/16 08:04:59;;;;;;;5.65;3.65;;;23.70;97.80;;;23.96;60.54;96654.97;5032356;28;20390;-51
2022/08/16 08:07:25;;;;;;;4.88;3.63;;;24.00;97.00;;;24.00;60.49;96650.94;5032233;28;20029;-51
2022/08/16 08:09:51;;;;;;;5.43;3.95;;;24.00;96.50;;;24.01;60.49;96661.56;5034044;28;20025;-51
2022/08/16 08:12:20;;;;;;;4.35;3.20;;;24.00;96.40;;;24.20;59.89;96660.47;5032682;28;20037;-50
2022/08/16 08:14:47;;;;;;;5.90;3.38;;;24.20;96.30;;;24.17;58.25;96660.81;5034019;28;20591;-51
2022/08/16 08:17:13;;;;;;;6.18;3.92;;;24.20;95.50;;;24.10;58.28;96665.16;5033684;28;20113;-51
2022/08/16 08:19:40;;;;;;;7.13;3.83;;;24.10;95.30;;;24.02;58.36;96670.47;5032957;28;20034;-52
2022/08/16 08:22:07;;;;;;;8.00;3.85;;;24.10;95.30;;;23.95;59.28;96674.81;5031487;28;20036;-51
2022/08/16 08:24:33;;;;;;;6.47;3.88;;;24.00;95.50;;;23.87;59.16;96664.81;5030942;28;20086;-50
2022/08/16 08:27:03;;;;;;;6.78;4.15;;;24.00;95.30;;;23.81;59.16;96669.00;5032433;28;20037;-53
2022/08/16 08:29:29;;;;;;;5.00;3.75;;;23.90;95.20;;;23.86;59.10;96676.59;5017052;28;20037;-52
2022/08/16 08:31:55;;;;;;;6.68;4.10;;;23.90;95.10;;;23.91;58.60;96681.50;5032181;28;20034;-49
2022/08/16 08:34:21;;;;;;;6.75;3.65;;;24.00;95.40;;;23.92;58.54;96680.50;5032714;28;20157;-52
2022/08/16 08:36:50;;;;;;;6.30;4.20;;;23.90;94.90;;;23.85;58.46;96674.03;5031103;28;20796;-51
2022/08/16 08:39:16;;;;;;;4.95;3.35;;;23.80;94.80;;;23.71;59.29;96670.91;5031515;28;20492;-49
2022/08/16 08:41:43;;;;;;;7.05;3.75;;;23.80;95.10;;;23.72;59.30;96688.72;5031846;28;20021;-49
2022/08/16 08:44:12;;;;;;;8.35;3.53;;;23.60;95.10;;;23.64;59.94;96686.00;5033588;28;20135;-50
2022/08/16 08:46:39;;;;;;;5.85;3.28;;;23.60;95.20;;;23.67;60.49;96688.38;5032316;28;20033;-49
2022/08/16 08:49:07;;;;;;;4.38;3.35;;;23.70;95.40;;;23.84;59.69;96688.53;5034433;28;20036;-48
2022/08/16 08:51:34;;;;;;;5.97;3.67;;;23.80;95.40;;;24.11;58.57;96688.38;5033185;28;20542;-47
2022/08/16 08:54:00;;;;;;;5.35;3.83;;;24.10;95.00;;;24.44;57.12;96683.16;5029751;28;20068;-49
2022/08/16 08:56:28;;;;;;;6.25;3.30;;;24.40;94.30;;;24.71;55.38;96700.16;5032806;28;20022;-48
2022/08/16 08:58:54;;;;;;;5.75;4.40;;;24.70;93.60;;;24.67;53.12;96694.25;5033336;28;20025;-50
2022/08/16 09:01:27;;;;;;;5.00;3.85;;;24.80;92.70;;;24.75;53.42;96698.84;5032670;28;20170;-51
2022/08/16 09:03:53;;;;;;;4.10;3.55;;;24.70;92.40;;;24.71;53.15;96703.72;5033161;28;20067;-48
2022/08/16 09:06:19;;;;;;;6.78;3.63;;;24.70;92.20;;;24.68;53.05;96700.50;5033477;28;20060;-49
2022/08/16 09:08:45;;;;;;;5.40;3.58;;;24.70;92.00;;;24.67;53.41;96704.19;5032759;28;20071;-49
2022/08/16 09:11:10;;;;;;;4.57;3.50;;;24.70;92.10;;;24.60;53.01;96701.28;5031702;28;20026;-50
2022/08/16 09:13:36;;;;;;;4.88;3.83;;;24.60;91.70;;;24.49;53.11;96696.16;5034790;28;20469;-49
2022/08/16 09:16:02;;;;;;;7.20;4.43;;;24.50;91.70;;;24.23;53.36;96698.88;5020988;28;20160;-52
2022/08/16 09:18:29;;;;;;;4.68;4.22;;;24.40;91.60;;;24.11;54.74;96704.53;5036256;28;20104;-50
2022/08/16 09:20:55;;;;;;;5.43;3.60;;;24.20;91.90;;;24.01;55.25;96709.16;5036412;28;20399;-48
2022/08/16 09:23:22;;;;;;;4.20;3.30;;;24.10;92.20;;;24.01;55.23;96699.25;5035052;28;20221;-48
2022/08/16 09:25:48;;;;;;;3.45;2.80;;;24.10;92.40;;;24.16;55.40;96702.22;5035455;28;20056;-49
2022/08/16 09:28:14;;;;;;;6.75;4.40;;;24.20;92.40;;;24.23;53.25;96697.03;5035313;28;20134;-51
2022/08/16 09:30:41;;;;;;;4.40;4.00;;;24.30;91.50;;;24.32;53.31;96696.06;5034567;28;20756;-48
2022/08/16 09:33:07;;;;;;;5.60;4.10;;;24.30;91.50;;;24.38;53.30;96697.28;5035385;28;20029;-48
2022/08/16 09:35:35;;;;;;;8.68;4.47;;;24.40;91.50;;;24.39;53.65;96696.28;5015138;28;20033;-52
2022/08/16 09:38:02;;;;;;;7.28;3.90;;;24.40;91.50;;;24.38;53.98;96702.66;5017646;28;20443;-50
2022/08/16 09:40:28;;;;;;;6.25;3.97;;;24.40;91.50;;;24.35;53.55;96700.28;5036418;28;20023;-50
2022/08/16 09:42:56;;;;;;;5.30;3.33;;;24.40;91.50;;;24.26;53.96;96695.84;5034661;28;20029;-48
2022/08/16 09:45:22;;;;;;;3.53;3.22;;;24.30;91.40;;;24.24;54.32;96700.56;5034474;28;20041;-49
2022/08/16 09:47:53;;;;;;;6.45;4.05;;;24.20;91.60;;;24.17;53.52;96703.91;5034354;28;20079;-52
2022/08/16 09:50:20;;;;;;;4.10;3.30;;;24.10;91.60;;;24.13;54.41;96707.06;5035825;28;20037;-52
2022/08/16 09:52:46;;;;;;;5.88;3.90;;;24.10;91.60;;;24.02;53.41;96702.78;5035473;28;20059;-49
2022/08/16 09:55:12;;;;;;;5.32;3.92;;;24.10;91.20;;;24.07;53.37;96692.38;5035009;28;20148;-52
2022/08/16 09:57:40;;;;;;;3.72;3.38;;;24.00;91.10;;;24.11;53.27;96696.44;5036256;28;20021;-51
2022/08/16 10:00:10;;;;;;;4.30;3.90;;;24.10;91.10;;;24.27;53.14;96697.56;5017546;28;20047;-50
2022/08/16 10:02:36;;;;;;;4.75;3.50;;;24.30;91.00;;;24.47;52.34;96693.63;5033496;28;20575;-52
2022/08/16 10:05:03;;;;;;;7.95;3.92;;;24.60;90.60;;;24.74;51.04;96697.97;5035355;28;20033;-50
2022/08/16 10:07:30;;;;;;;4.28;3.80;;;24.80;90.00;;;25.06;51.19;96690.16;5037269;28;20037;-47
2022/08/16 10:09:56;;;;;;;4.53;3.28;;;25.10;89.90;;;25.39;49.57;96698.34;5035177;28;20196;-50
2022/08/16 10:15:19;;;;;;;3.90;3.50;;;25.60;87.50;;;25.82;48.86;96694.47;5036274;28;20515;-52
2022/08/16 10:17:49;;;;;;;5.03;3.80;;;25.80;87.30;;;25.88;48.54;96692.97;5031696;28;20025;-50
2022/08/16 10:20:15;;;;;;;4.10;3.42;;;25.90;87.00;;;25.90;48.49;96693.66;5035751;28;20029;-48